createdAt,value
2023-02-15T00:01:12.333Z,100352.98
2023-02-15T00:03:40.937Z,100356.09
2023-02-15T00:06:09.284Z,100359.20
2023-02-15T00:08:38.223Z,100362.48
2023-02-15T00:11:10.768Z,100363.73
2023-02-15T00:13:42.902Z,100366.39
2023-02-15T00:16:12.663Z,100370.77
2023-02-15T00:18:43.866Z,100367.80
2023-02-15T00:21:13.388Z,100373.38
2023-02-15T00:23:41.667Z,100374.87
2023-02-15T00:26:11.905Z,100378.89
2023-02-15T00:28:41.677Z,100378.98
2023-02-15T00:31:11.716Z,100382.86
2023-02-15T00:33:40.364Z,100386.63
2023-02-15T00:36:09.822Z,100384.43
2023-02-15T00:38:39.463Z,100386.45
2023-02-15T00:41:08.461Z,100385.55
2023-02-15T00:43:37.341Z,100386.27
2023-02-15T00:46:08.482Z,100387.34
2023-02-15T00:48:37.066Z,100390.27
2023-02-15T00:51:05.902Z,100388.76
2023-02-15T00:53:34.591Z,100391.68
2023-02-15T00:56:03.560Z,100388.50
2023-02-15T00:58:32.334Z,100386.38
2023-02-15T01:01:06.624Z,100390.23
2023-02-15T01:03:35.400Z,100393.09
2023-02-15T01:06:04.662Z,100394.66
2023-02-15T01:08:34.403Z,100392.34
2023-02-15T01:11:10.683Z,100394.32
2023-02-15T01:13:41.098Z,100397.14
2023-02-15T01:16:09.710Z,100401.91
2023-02-15T01:18:38.526Z,100396.70
2023-02-15T01:21:12.127Z,100399.59
2023-02-15T01:23:42.074Z,100400.75
2023-02-15T01:26:11.302Z,100399.83
2023-02-15T01:28:39.716Z,100398.40
2023-02-15T01:31:09.864Z,100402.45
2023-02-15T01:33:41.225Z,100402.48
2023-02-15T01:36:11.563Z,100405.34
2023-02-15T01:38:41.757Z,100403.69
2023-02-15T01:41:25.685Z,100406.20
2023-02-15T01:43:56.304Z,100407.75
2023-02-15T01:46:47.324Z,100405.54
2023-02-15T01:49:20.306Z,100405.20
2023-02-15T01:51:49.511Z,100406.64
2023-02-15T01:54:25.959Z,100406.39
2023-02-15T01:56:55.494Z,100410.77
2023-02-15T01:59:24.325Z,100406.27
2023-02-15T02:01:53.664Z,100403.58
2023-02-15T02:04:32.968Z,100405.80
2023-02-15T02:07:01.550Z,100412.95
2023-02-15T02:09:30.030Z,100414.33
2023-02-15T02:11:58.695Z,100412.80
2023-02-15T02:14:27.115Z,100415.79
2023-02-15T02:17:07.786Z,100417.66
2023-02-15T02:19:59.876Z,100413.53
2023-02-15T02:23:05.109Z,100415.50
2023-02-15T02:25:33.561Z,100415.98
2023-02-15T02:28:16.651Z,100417.21
2023-02-15T02:31:17.759Z,100412.32
2023-02-15T02:33:57.865Z,100410.41
2023-02-15T02:36:33.064Z,100409.98
2023-02-15T02:39:21.171Z,100411.33
2023-02-15T02:42:17.400Z,100413.05
2023-02-15T02:44:49.420Z,100417.08
2023-02-15T02:47:23.945Z,100417.02
2023-02-15T02:50:04.447Z,100419.20
2023-02-15T02:52:44.063Z,100419.52
2023-02-15T02:55:40.298Z,100420.83
2023-02-15T02:58:12.776Z,100425.90
2023-02-15T03:00:56.511Z,100420.58
2023-02-15T03:04:05.908Z,100424.44
2023-02-15T03:06:55.001Z,100422.95
2023-02-15T03:09:35.745Z,100423.86
2023-02-15T03:12:04.910Z,100429.69
2023-02-15T03:14:34.558Z,100433.65
2023-02-15T03:17:03.052Z,100433.02
2023-02-15T03:19:32.841Z,100431.89
2023-02-15T03:22:10.445Z,100434.30
2023-02-15T03:24:44.853Z,100440.18
2023-02-15T03:27:18.775Z,100438.73
2023-02-15T03:29:48.446Z,100441.95
2023-02-15T03:32:17.433Z,100444.64
2023-02-15T03:34:45.935Z,100449.05
2023-02-15T03:37:40.537Z,100447.72
2023-02-15T03:40:30.788Z,100450.46
2023-02-15T03:43:08.001Z,100445.34
2023-02-15T03:45:36.535Z,100446.02
2023-02-15T03:48:05.608Z,100452.53
2023-02-15T03:50:53.090Z,100457.33
2023-02-15T03:53:22.625Z,100459.20
2023-02-15T03:55:57.226Z,100460.24
2023-02-15T03:58:58.412Z,100461.76
2023-02-15T04:02:04.371Z,100463.77
2023-02-15T04:04:37.654Z,100466.30
2023-02-15T04:07:08.349Z,100465.96
2023-02-15T04:09:55.386Z,100467.19
2023-02-15T04:12:24.328Z,100472.16
2023-02-15T04:15:11.674Z,100469.79
2023-02-15T04:17:42.367Z,100478.17
2023-02-15T04:20:29.811Z,100474.27
2023-02-15T04:23:16.511Z,100474.80
2023-02-15T04:25:45.373Z,100477.85
2023-02-15T04:28:13.723Z,100480.58
2023-02-15T04:30:42.503Z,100482.09
2023-02-15T04:33:11.855Z,100488.36
2023-02-15T04:35:40.238Z,100490.16
2023-02-15T04:38:12.482Z,100487.39
2023-02-15T04:40:41.835Z,100491.46
2023-02-15T04:43:10.363Z,100493.85
2023-02-15T04:45:38.831Z,100494.21
2023-02-15T04:48:07.182Z,100497.12
2023-02-15T04:50:37.202Z,100495.62
2023-02-15T04:53:05.492Z,100506.53
2023-02-15T04:55:34.078Z,100510.80
2023-02-15T04:58:02.464Z,100511.85
2023-02-15T05:00:31.051Z,100519.02
2023-02-15T05:02:59.333Z,100521.39
2023-02-15T05:05:27.906Z,100528.23
2023-02-15T05:07:56.360Z,100531.11
2023-02-15T05:10:24.764Z,100528.77
2023-02-15T05:12:53.219Z,100532.24
2023-02-15T05:15:22.369Z,100540.61
2023-02-15T05:17:51.098Z,100545.92
2023-02-15T05:20:20.058Z,100545.77
2023-02-15T05:22:48.842Z,100547.52
2023-02-15T05:25:35.648Z,100554.91
2023-02-15T05:28:22.439Z,100557.70
2023-02-15T05:31:12.101Z,100556.09
2023-02-15T05:33:41.845Z,100556.19
2023-02-15T05:36:10.432Z,100549.66
2023-02-15T05:38:39.286Z,100551.90
2023-02-15T05:41:08.657Z,100560.60
2023-02-15T05:43:37.644Z,100558.75
2023-02-15T05:46:06.348Z,100561.11
2023-02-15T05:48:36.975Z,100564.14
2023-02-15T05:51:10.544Z,100565.52
2023-02-15T05:53:39.284Z,100566.27
2023-02-15T05:56:09.330Z,100567.84
2023-02-15T05:58:40.186Z,100564.89
2023-02-15T06:01:15.920Z,100565.99
2023-02-15T06:03:44.778Z,100569.34
2023-02-15T06:06:13.293Z,100570.31
2023-02-15T06:08:41.777Z,100570.38
2023-02-15T06:11:10.238Z,100570.09
2023-02-15T06:13:39.270Z,100571.56
2023-02-15T06:16:08.098Z,100576.88
2023-02-15T06:18:36.779Z,100578.29
2023-02-15T06:21:05.188Z,100582.61
2023-02-15T06:23:34.531Z,100584.50
2023-02-15T06:26:03.152Z,100583.84
2023-02-15T06:28:31.871Z,100583.08
2023-02-15T06:31:00.471Z,100584.33
2023-02-15T06:33:29.243Z,100587.42
2023-02-15T06:35:57.671Z,100590.57
2023-02-15T06:38:26.117Z,100587.16
2023-02-15T06:40:54.862Z,100589.10
2023-02-15T06:43:23.497Z,100591.95
2023-02-15T06:45:51.862Z,100588.67
2023-02-15T06:48:20.345Z,100588.95
2023-02-15T06:50:48.864Z,100593.81
2023-02-15T06:53:19.029Z,100594.17
2023-02-15T06:55:47.617Z,100591.88
2023-02-15T06:58:19.977Z,100593.08
2023-02-15T07:00:50.553Z,100594.05
2023-02-15T07:03:19.976Z,100589.92
2023-02-15T07:05:49.946Z,100594.01
2023-02-15T07:08:18.728Z,100594.24
2023-02-15T07:10:47.324Z,100592.55
2023-02-15T07:13:16.022Z,100589.41
2023-02-15T07:15:49.334Z,100592.83
2023-02-15T07:18:18.319Z,100590.98
2023-02-15T07:20:47.364Z,100585.70
2023-02-15T07:23:16.583Z,100590.98
2023-02-15T07:25:44.901Z,100589.50
2023-02-15T07:28:13.697Z,100587.84
2023-02-15T07:30:42.327Z,100590.23
2023-02-15T07:33:25.922Z,100592.44
2023-02-15T07:35:56.158Z,100593.02
2023-02-15T07:38:25.342Z,100596.94
2023-02-15T07:40:59.159Z,100599.30
2023-02-15T07:43:28.442Z,100597.42
2023-02-15T07:46:08.751Z,100602.02
2023-02-15T07:48:39.399Z,100593.55
2023-02-15T07:51:08.892Z,100604.27
2023-02-15T07:53:38.241Z,100606.48
2023-02-15T07:56:08.532Z,100605.27
2023-02-15T07:58:53.516Z,100610.39
2023-02-15T08:01:40.657Z,100605.27
2023-02-15T08:04:12.286Z,100610.49
2023-02-15T08:06:41.243Z,100613.05
2023-02-15T08:09:14.283Z,100610.44
2023-02-15T08:11:43.899Z,100614.14
2023-02-15T08:14:21.599Z,100617.20
2023-02-15T08:16:51.654Z,100618.85
2023-02-15T08:19:22.231Z,100619.98
2023-02-15T08:22:05.294Z,100619.08
2023-02-15T08:24:35.827Z,100618.25
2023-02-15T08:27:07.136Z,100623.66
2023-02-15T08:29:36.396Z,100623.23
2023-02-15T08:32:10.514Z,100624.56
2023-02-15T08:34:42.004Z,100624.77
2023-02-15T08:37:10.608Z,100627.75
2023-02-15T08:39:40.350Z,100634.50
2023-02-15T08:42:08.833Z,100639.37
2023-02-15T08:44:37.451Z,100636.96
2023-02-15T08:47:05.903Z,100637.77
2023-02-15T08:49:34.269Z,100639.11
2023-02-15T08:52:02.973Z,100637.11
2023-02-15T08:54:31.665Z,100642.02
2023-02-15T08:57:00.754Z,100639.09
2023-02-15T08:59:29.784Z,100636.44
2023-02-15T09:01:58.962Z,100643.68
2023-02-15T09:04:27.385Z,100644.86
2023-02-15T09:06:56.406Z,100648.94
2023-02-15T09:09:32.358Z,100650.70
2023-02-15T09:12:00.968Z,100648.32
2023-02-15T09:14:29.553Z,100646.31
2023-02-15T09:16:58.608Z,100646.52
2023-02-15T09:19:27.250Z,100647.73
2023-02-15T09:21:59.856Z,100644.88
2023-02-15T09:24:28.253Z,100646.58
2023-02-15T09:27:01.162Z,100645.78
2023-02-15T09:29:30.259Z,100646.35
2023-02-15T09:31:59.084Z,100641.61
2023-02-15T09:34:27.666Z,100641.52
2023-02-15T09:36:56.553Z,100640.05
2023-02-15T09:39:26.189Z,100643.34
2023-02-15T09:42:26.240Z,100642.83
2023-02-15T09:45:16.233Z,100637.48
2023-02-15T09:48:09.154Z,100639.98
2023-02-15T09:51:00.278Z,100637.85
2023-02-15T09:53:34.733Z,100641.58
2023-02-15T09:56:17.271Z,100639.04
2023-02-15T09:58:57.823Z,100637.39
2023-02-15T10:01:44.705Z,100638.76
2023-02-15T10:04:19.087Z,100644.31
2023-02-15T10:07:06.680Z,100644.14
2023-02-15T10:09:41.479Z,100652.44
2023-02-15T10:12:29.841Z,100646.73
2023-02-15T10:15:04.143Z,100650.06
2023-02-15T10:18:07.792Z,100652.10
2023-02-15T10:20:43.399Z,100649.61
2023-02-15T10:23:50.091Z,100650.23
2023-02-15T10:26:28.320Z,100651.75
2023-02-15T10:29:34.311Z,100655.98
2023-02-15T10:32:06.056Z,100654.88
2023-02-15T10:34:41.310Z,100650.09
2023-02-15T10:37:17.328Z,100649.48
2023-02-15T10:40:10.926Z,100649.35
2023-02-15T10:43:17.516Z,100652.38
2023-02-15T10:46:19.997Z,100653.23
2023-02-15T10:48:58.052Z,100654.85
2023-02-15T10:52:17.936Z,100654.66
2023-02-15T10:54:48.226Z,100652.95
2023-02-15T10:57:35.364Z,100652.77
2023-02-15T11:00:10.600Z,100657.52
2023-02-15T11:02:46.921Z,100656.06
2023-02-15T11:05:33.859Z,100655.86
2023-02-15T11:08:05.203Z,100659.80
2023-02-15T11:10:50.373Z,100659.95
2023-02-15T11:13:20.866Z,100658.70
2023-02-15T11:15:55.220Z,100661.06
2023-02-15T11:18:28.551Z,100659.27
2023-02-15T11:21:00.334Z,100661.08
2023-02-15T11:23:29.896Z,100659.77
2023-02-15T11:26:03.518Z,100655.77
2023-02-15T11:28:44.243Z,100657.14
2023-02-15T11:31:17.310Z,100655.23
2023-02-15T11:33:48.785Z,100658.36
2023-02-15T11:36:28.849Z,100658.69
2023-02-15T11:39:15.640Z,100662.27
2023-02-15T11:41:55.288Z,100667.16
2023-02-15T11:44:27.555Z,100674.95
2023-02-15T11:46:56.258Z,100671.09
2023-02-15T11:49:31.359Z,100676.15
2023-02-15T11:52:01.114Z,100683.00
2023-02-15T11:54:31.873Z,100684.10
2023-02-15T11:57:41.573Z,100683.39
2023-02-15T12:00:37.297Z,100681.24
2023-02-15T12:03:12.716Z,100686.23
2023-02-15T12:05:43.367Z,100689.08
2023-02-15T12:08:22.191Z,100693.27
2023-02-15T12:11:00.558Z,100693.44
2023-02-15T12:13:29.215Z,100693.77
2023-02-15T12:15:58.938Z,100697.89
2023-02-15T12:18:41.201Z,100703.66
2023-02-15T12:21:10.840Z,100706.64
2023-02-15T12:23:45.205Z,100708.38
2023-02-15T12:26:13.788Z,100710.20
2023-02-15T12:28:44.077Z,100715.25
2023-02-15T12:31:24.573Z,100719.71
2023-02-15T12:33:55.136Z,100715.74
2023-02-15T12:36:29.187Z,100719.24
2023-02-15T12:39:28.778Z,100723.95
2023-02-15T12:41:57.721Z,100723.56
2023-02-15T12:44:30.092Z,100724.61
2023-02-15T12:47:05.058Z,100721.63
2023-02-15T12:49:38.223Z,100719.77
2023-02-15T12:52:27.934Z,100721.61
2023-02-15T12:54:56.678Z,100719.79
2023-02-15T12:57:30.139Z,100720.58
2023-02-15T13:00:29.677Z,100724.79
2023-02-15T13:02:58.646Z,100727.72
2023-02-15T13:05:32.730Z,100730.44
2023-02-15T13:08:13.624Z,100733.83
2023-02-15T13:11:22.862Z,100733.13
2023-02-15T13:13:56.068Z,100736.95
2023-02-15T13:16:36.353Z,100736.55
2023-02-15T13:19:13.160Z,100741.19
2023-02-15T13:21:43.042Z,100740.45
2023-02-15T13:24:27.439Z,100742.40
2023-02-15T13:27:12.886Z,100745.00
2023-02-15T13:29:49.833Z,100749.02
2023-02-15T13:32:39.076Z,100752.82
2023-02-15T13:35:10.647Z,100751.07
2023-02-15T13:37:52.795Z,100753.46
2023-02-15T13:40:25.947Z,100762.27
2023-02-15T13:43:00.806Z,100757.98
2023-02-15T13:45:32.379Z,100758.48
2023-02-15T13:48:13.712Z,100765.58
2023-02-15T13:51:00.786Z,100767.95
2023-02-15T13:53:32.103Z,100765.36
2023-02-15T13:56:12.420Z,100768.23
2023-02-15T13:58:50.396Z,100774.21
2023-02-15T14:01:25.970Z,100774.47
2023-02-15T14:04:01.499Z,100776.77
2023-02-15T14:06:37.637Z,100778.39
2023-02-15T14:09:10.418Z,100777.72
2023-02-15T14:11:42.185Z,100782.66
2023-02-15T14:14:49.242Z,100788.04
2023-02-15T14:17:37.588Z,100791.99
2023-02-15T14:20:28.909Z,100797.45
2023-02-15T14:22:57.390Z,100809.28
2023-02-15T14:25:56.437Z,100815.30
2023-02-15T14:28:51.089Z,100815.41
2023-02-15T14:31:21.835Z,100820.52
2023-02-15T14:33:55.897Z,100816.70
2023-02-15T14:36:24.331Z,100813.50
2023-02-15T14:39:01.368Z,100813.60
2023-02-15T14:41:44.722Z,100809.55
2023-02-15T14:44:24.508Z,100807.88
2023-02-15T14:47:12.833Z,100810.39
2023-02-15T14:49:42.290Z,100810.95
2023-02-15T14:52:12.597Z,100812.63
2023-02-15T14:54:41.529Z,100813.60
2023-02-15T14:57:11.379Z,100809.61
2023-02-15T15:00:00.792Z,100818.55
2023-02-15T15:02:45.034Z,100816.42
2023-02-15T15:05:20.436Z,100815.41
2023-02-15T15:07:59.339Z,100816.23
2023-02-15T15:10:39.344Z,100816.88
2023-02-15T15:13:32.793Z,100818.49
2023-02-15T15:16:32.776Z,100823.19
2023-02-15T15:19:02.625Z,100826.01
2023-02-15T15:21:47.448Z,100828.39
2023-02-15T15:24:38.939Z,100832.09
2023-02-15T15:27:46.147Z,100832.49
2023-02-15T15:30:14.747Z,100835.73
2023-02-15T15:32:55.686Z,100837.26
2023-02-15T15:35:24.171Z,100840.88
2023-02-15T15:38:13.102Z,100841.40
2023-02-15T15:41:00.370Z,100843.45
2023-02-15T15:44:06.418Z,100847.85
2023-02-15T15:46:38.382Z,100848.73
2023-02-15T15:49:10.475Z,100854.30
2023-02-15T15:51:41.313Z,100858.60
2023-02-15T15:54:20.504Z,100857.67
2023-02-15T15:56:59.449Z,100863.41
2023-02-15T15:59:32.511Z,100865.15
2023-02-15T16:02:08.854Z,100867.95
2023-02-15T16:04:38.744Z,100874.73
2023-02-15T16:07:19.381Z,100873.02
2023-02-15T16:10:08.920Z,100873.19
2023-02-15T16:12:38.490Z,100877.60
2023-02-15T16:15:15.730Z,100878.92
2023-02-15T16:17:44.932Z,100884.31
2023-02-15T16:20:35.202Z,100887.46
2023-02-15T16:23:22.544Z,100884.00
2023-02-15T16:26:18.708Z,100885.63
2023-02-15T16:28:51.343Z,100889.02
2023-02-15T16:31:20.269Z,100889.02
2023-02-15T16:33:48.995Z,100893.77
2023-02-15T16:36:27.505Z,100892.10
2023-02-15T16:38:58.718Z,100897.23
2023-02-15T16:41:30.190Z,100895.73
2023-02-15T16:44:02.386Z,100898.96
2023-02-15T16:46:37.628Z,100901.19
2023-02-15T16:49:09.260Z,100906.14
2023-02-15T16:51:37.641Z,100904.96
2023-02-15T16:54:09.593Z,100908.20
2023-02-15T16:56:38.098Z,100906.98
2023-02-15T16:59:06.803Z,100910.70
2023-02-15T17:01:35.560Z,100914.98
2023-02-15T17:04:28.653Z,100912.61
2023-02-15T17:07:21.519Z,100914.80
2023-02-15T17:10:00.158Z,100917.00
2023-02-15T17:12:58.917Z,100916.45
2023-02-15T17:15:27.703Z,100918.00
2023-02-15T17:18:23.762Z,100922.80
2023-02-15T17:20:55.788Z,100926.46
2023-02-15T17:23:32.908Z,100930.41
2023-02-15T17:26:12.384Z,100935.34
2023-02-15T17:28:41.969Z,100935.80
2023-02-15T17:31:10.801Z,100935.88
2023-02-15T17:33:40.506Z,100939.02
2023-02-15T17:36:14.958Z,100938.45
2023-02-15T17:38:58.800Z,100934.16
2023-02-15T17:41:28.544Z,100936.56
2023-02-15T17:43:57.140Z,100936.21
2023-02-15T17:46:26.026Z,100939.24
2023-02-15T17:48:55.901Z,100942.96
2023-02-15T17:51:24.476Z,100941.30
2023-02-15T17:54:11.917Z,100937.97
2023-02-15T17:56:40.646Z,100939.39
2023-02-15T17:59:11.487Z,100933.28
2023-02-15T18:02:07.694Z,100938.80
2023-02-15T18:04:54.987Z,100939.20
2023-02-15T18:07:42.545Z,100940.41
2023-02-15T18:10:36.798Z,100936.16
2023-02-15T18:13:05.218Z,100937.92
2023-02-15T18:15:34.002Z,100943.49
2023-02-15T18:18:03.598Z,100941.55
2023-02-15T18:20:37.227Z,100944.36
2023-02-15T18:23:14.610Z,100943.29
2023-02-15T18:25:46.699Z,100943.30
2023-02-15T18:28:15.525Z,100943.33
2023-02-15T18:30:44.169Z,100946.54
2023-02-15T18:33:37.467Z,100947.73
2023-02-15T18:36:08.155Z,100945.06
2023-02-15T18:38:37.169Z,100946.42
2023-02-15T18:41:05.711Z,100950.24
2023-02-15T18:43:34.366Z,100950.52
2023-02-15T18:46:03.271Z,100950.67
2023-02-15T18:48:32.303Z,100953.23
2023-02-15T18:51:01.659Z,100953.54
2023-02-15T18:53:30.391Z,100953.05
2023-02-15T18:55:59.028Z,100951.01
2023-02-15T18:58:28.296Z,100955.38
2023-02-15T19:01:18.694Z,100952.70
2023-02-15T19:03:48.337Z,100947.92
2023-02-15T19:06:18.754Z,100946.91
2023-02-15T19:08:49.828Z,100945.79
2023-02-15T19:11:20.632Z,100944.41
2023-02-15T19:13:49.686Z,100940.27
2023-02-15T19:16:31.703Z,100941.96
2023-02-15T19:19:00.352Z,100942.36
2023-02-15T19:21:30.204Z,100939.19
2023-02-15T19:24:02.660Z,100934.52
2023-02-15T19:26:44.542Z,100936.94
2023-02-15T19:29:14.802Z,100934.91
2023-02-15T19:31:44.076Z,100936.95
2023-02-15T19:34:17.088Z,100935.80
2023-02-15T19:36:49.952Z,100931.00
2023-02-15T19:39:27.252Z,100929.61
2023-02-15T19:41:59.709Z,100930.27
2023-02-15T19:44:28.551Z,100929.43
2023-02-15T19:46:57.783Z,100923.88
2023-02-15T19:49:29.681Z,100925.45
2023-02-15T19:51:58.758Z,100929.92
2023-02-15T19:54:34.447Z,100925.95
2023-02-15T19:57:11.598Z,100921.96
2023-02-15T19:59:40.844Z,100920.21
2023-02-15T20:02:16.009Z,100921.48
2023-02-15T20:04:44.641Z,100922.59
2023-02-15T20:07:31.173Z,100924.11
2023-02-15T20:09:59.985Z,100930.01
2023-02-15T20:12:29.697Z,100934.73
2023-02-15T20:14:58.791Z,100927.17
2023-02-15T20:17:27.393Z,100929.11
2023-02-15T20:20:00.966Z,100927.99
2023-02-15T20:22:29.874Z,100926.59
2023-02-15T20:24:59.215Z,100922.30
2023-02-15T20:27:28.246Z,100921.38
2023-02-15T20:29:57.037Z,100921.23
2023-02-15T20:32:27.103Z,100919.11
2023-02-15T20:34:55.556Z,100920.64
2023-02-15T20:37:26.588Z,100916.86
2023-02-15T20:39:55.224Z,100915.45
2023-02-15T20:42:23.686Z,100918.10
2023-02-15T20:44:52.233Z,100916.01
2023-02-15T20:47:21.841Z,100916.05
2023-02-15T20:49:50.928Z,100913.92
2023-02-15T20:52:22.962Z,100913.91
2023-02-15T20:54:52.022Z,100915.71
2023-02-15T20:57:20.643Z,100920.55
2023-02-15T20:59:49.310Z,100918.59
2023-02-15T21:02:19.689Z,100920.52
2023-02-15T21:04:48.415Z,100919.94
2023-02-15T21:07:20.784Z,100919.92
2023-02-15T21:09:52.725Z,100922.67
2023-02-15T21:12:22.393Z,100923.77
2023-02-15T21:14:53.072Z,100923.23
2023-02-15T21:17:21.665Z,100922.23
2023-02-15T21:19:50.268Z,100923.23
2023-02-15T21:22:21.629Z,100925.05
2023-02-15T21:24:51.244Z,100920.27
2023-02-15T21:27:19.725Z,100924.63
2023-02-15T21:29:48.619Z,100925.59
2023-02-15T21:32:19.221Z,100925.02
2023-02-15T21:34:47.759Z,100925.38
2023-02-15T21:37:33.832Z,100924.20
2023-02-15T21:40:03.065Z,100923.32
2023-02-15T21:42:50.365Z,100921.93
2023-02-15T21:45:37.880Z,100923.61
2023-02-15T21:48:06.869Z,100921.81
2023-02-15T21:50:54.440Z,100923.23
2023-02-15T21:53:37.154Z,100925.57
2023-02-15T21:56:06.163Z,100922.58
2023-02-15T21:58:36.640Z,100922.38
2023-02-15T22:01:05.712Z,100928.45
2023-02-15T22:03:38.105Z,100928.95
2023-02-15T22:06:06.834Z,100927.77
2023-02-15T22:08:35.628Z,100928.63
2023-02-15T22:11:10.835Z,100931.98
2023-02-15T22:13:39.261Z,100935.11
2023-02-15T22:16:15.688Z,100937.91
2023-02-15T22:18:44.758Z,100942.05
2023-02-15T22:21:13.445Z,100937.63
2023-02-15T22:23:41.824Z,100941.34
2023-02-15T22:26:23.066Z,100940.68
2023-02-15T22:28:51.770Z,100946.21
2023-02-15T22:31:21.291Z,100947.27
2023-02-15T22:33:51.349Z,100947.02
2023-02-15T22:36:30.830Z,100950.07
2023-02-15T22:38:59.707Z,100947.92
2023-02-15T22:41:30.204Z,100946.72
2023-02-15T22:43:59.014Z,100946.60
2023-02-15T22:46:27.455Z,100949.34
2023-02-15T22:48:56.010Z,100950.20
2023-02-15T22:51:24.763Z,100952.20
2023-02-15T22:53:54.140Z,100956.75
2023-02-15T22:56:32.031Z,100954.77
2023-02-15T22:59:02.897Z,100956.48
2023-02-15T23:01:33.133Z,100956.98
2023-02-15T23:04:03.784Z,100958.52
2023-02-15T23:06:34.432Z,100962.09
2023-02-15T23:09:04.261Z,100958.66
2023-02-15T23:11:32.703Z,100958.66
2023-02-15T23:14:03.275Z,100965.17
2023-02-15T23:16:32.168Z,100962.52
2023-02-15T23:19:00.672Z,100965.84
2023-02-15T23:21:31.710Z,100969.90
2023-02-15T23:24:23.913Z,100971.11
2023-02-15T23:26:52.587Z,100969.45
2023-02-15T23:29:23.330Z,100972.91
2023-02-15T23:31:52.796Z,100975.88
2023-02-15T23:34:25.975Z,100978.61
2023-02-15T23:36:54.543Z,100981.66
2023-02-15T23:39:46.405Z,100986.09
2023-02-15T23:42:35.294Z,100988.45
2023-02-15T23:45:05.251Z,100992.27
2023-02-15T23:47:53.405Z,100992.56
2023-02-15T23:50:26.619Z,100992.88
2023-02-15T23:52:55.527Z,100995.61
2023-02-15T23:55:38.198Z,100991.33
2023-02-15T23:58:10.528Z,100994.69
